Time;durP1;ratioP1;P1;durP2;ratioP2;P2;SDS_P1;SDS_P2;PMS_P1;PMS_P2;Temp;Humidity;BMP_temperature;BMP_pressure;BME280_temperature;BME280_humidity;BME280_pressure;Samples;Min_cycle;Max_cycle;Signal;HPM_P1;HPM_P2
2022/04/26 03:36:18;;;;;;;;;;;;;;;12.62;72.46;98150.06;5032669;28;19963;-62
2022/04/26 03:38:47;;;;;;;;;;;;;;;12.64;72.71;98153.22;5032769;28;19929;-62
2022/04/26 03:41:14;;;;;;;;;;;;;;;12.65;72.46;98152.19;5031272;28;20375;-62
2022/04/26 03:43:39;;;;;;;;;;;;;;;12.88;72.25;98147.94;5032133;28;19933;-62
2022/04/26 03:46:05;;;;;;;;;;;;;;;13.36;70.24;98147.97;5032035;28;19971;-62
2022/04/26 03:48:30;;;;;;;;;;;;;;;13.85;68.75;98152.06;5031030;28;19929;-63
2022/04/26 03:50:56;;;;;;;;;;;;;;;14.20;67.08;98149.94;5030597;28;19925;-62
2022/04/26 03:53:21;;;;;;;;;;;;;;;14.40;66.46;98154.16;5032265;28;20345;-61
2022/04/26 03:55:47;;;;;;;;;;;;;;;14.43;66.57;98157.03;5031838;28;20044;-63
2022/04/26 03:58:14;;;;;;;;;;;;;;;14.25;65.87;98164.00;5032211;28;19972;-64
2022/04/26 04:00:39;;;;;;;;;;;;;;;14.20;65.88;98168.59;5031901;28;20424;-63
2022/04/26 04:03:05;;;;;;;;;;;;;;;14.09;66.40;98173.31;5031834;28;19944;-62
2022/04/26 04:05:31;;;;;;;;;;;;;;;14.24;67.44;98173.06;5031782;28;19936;-63
2022/04/26 04:07:57;;;;;;;;;;;;;;;14.62;65.64;98167.69;5031996;28;19929;-63
2022/04/26 04:10:22;;;;;;;;;;;;;;;15.05;64.56;98178.09;5031444;28;19932;-63
2022/04/26 04:12:48;;;;;;;;;;;;;;;15.28;63.13;98168.31;5031693;28;20298;-62
2022/04/26 04:15:13;;;;;;;;;;;;;;;15.62;62.69;98165.22;5032012;28;20059;-64
2022/04/26 04:17:39;;;;;;;;;;;;;;;15.76;61.02;98167.09;5031823;28;20297;-62
2022/04/26 04:20:05;;;;;;;;;;;;;;;15.65;60.28;98161.94;5031710;28;19931;-63
2022/04/26 04:22:31;;;;;;;;;;;;;;;15.86;60.21;98154.31;5031881;28;20382;-63
2022/04/26 04:24:58;;;;;;;;;;;;;;;16.09;58.05;98160.47;5032007;28;20309;-62
2022/04/26 04:27:23;;;;;;;;;;;;;;;16.34;58.31;98167.06;5030275;28;19929;-62
2022/04/26 04:29:51;;;;;;;;;;;;;;;16.51;58.22;98163.72;5030665;28;19983;-61
2022/04/26 04:32:17;;;;;;;;;;;;;;;16.32;55.10;98168.47;5031670;28;19936;-62
2022/04/26 04:34:42;;;;;;;;;;;;;;;16.22;56.21;98168.72;5031933;28;20397;-63
2022/04/26 04:37:08;;;;;;;;;;;;;;;16.47;56.36;98165.44;5031683;28;19929;-62
2022/04/26 04:39:34;;;;;;;;;;;;;;;16.69;55.43;98163.81;5031186;28;19925;-64
2022/04/26 04:41:59;;;;;;;;;;;;;;;16.75;55.50;98158.03;5031320;28;19929;-64
2022/04/26 04:44:25;;;;;;;;;;;;;;;16.79;55.44;98158.22;5031408;28;19932;-62
2022/04/26 04:46:51;;;;;;;;;;;;;;;16.42;55.59;98159.44;5029836;28;20028;-62
2022/04/26 04:49:16;;;;;;;;;;;;;;;16.12;56.91;98157.19;5031657;28;20347;-61
2022/04/26 04:51:44;;;;;;;;;;;;;;;15.81;57.25;98154.41;5031338;28;19973;-62
2022/04/26 04:54:09;;;;;;;;;;;;;;;15.70;58.52;98144.25;5031250;28;19929;-63
2022/04/26 04:56:36;;;;;;;;;;;;;;;15.77;58.33;98139.31;5026031;28;20019;-63
2022/04/26 04:59:01;;;;;;;;;;;;;;;15.81;57.30;98140.25;5035674;28;19933;-63
2022/04/26 05:01:27;;;;;;;;;;;;;;;15.61;57.25;98128.91;5034518;28;20032;-63
2022/04/26 05:03:52;;;;;;;;;;;;;;;15.25;59.28;98134.22;5033346;28;20306;-62
2022/04/26 05:06:18;;;;;;;;;;;;;;;15.25;59.45;98136.09;5034918;28;19976;-62
2022/04/26 05:08:44;;;;;;;;;;;;;;;15.18;59.49;98131.97;5035013;28;19975;-60
2022/04/26 05:11:10;;;;;;;;;;;;;;;15.06;58.99;98129.00;5035209;28;19932;-61
2022/04/26 05:13:35;;;;;;;;;;;;;;;14.91;59.20;98124.75;5035222;28;19929;-63
2022/04/26 05:16:01;;;;;;;;;;;;;;;14.78;59.83;98130.84;5020230;28;19930;-62
2022/04/26 05:18:27;;;;;;;;;;;;;;;14.69;60.08;98128.09;5019841;28;19936;-62
2022/04/26 05:20:53;;;;;;;;;;;;;;;14.59;59.58;98130.94;5034495;28;19932;-62
2022/04/26 05:26:03;;;;;;;;;;;;;;;14.36;59.30;98131.84;5033475;28;20026;-63
2022/04/26 05:28:29;;;;;;;;;;;;;;;14.32;59.80;98140.44;5034215;28;19933;-63
2022/04/26 05:30:55;;;;;;;;;;;;;;;14.35;59.95;98135.59;5034395;28;20298;-62
2022/04/26 05:33:21;;;;;;;;;;;;;;;14.32;60.27;98139.63;5034396;28;19936;-62
2022/04/26 05:35:47;;;;;;;;;;;;;;;14.28;60.84;98141.28;5034458;28;19990;-63
2022/04/26 05:38:13;;;;;;;;;;;;;;;14.23;60.39;98141.38;5034854;28;20552;-62
2022/04/26 05:40:39;;;;;;;;;;;;;;;14.16;59.56;98147.09;5033676;28;19931;-64
2022/04/26 05:43:04;;;;;;;;;;;;;;;14.14;58.95;98143.13;5034381;28;20352;-63
2022/04/26 05:45:30;;;;;;;;;;;;;;;14.17;59.13;98147.88;5034023;28;19940;-62
2022/04/26 05:47:56;;;;;;;;;;;;;;;14.17;60.35;98145.22;5034469;28;19955;-62
2022/04/26 05:50:22;;;;;;;;;;;;;;;14.11;60.72;98139.16;5033856;28;20386;-63
2022/04/26 05:52:47;;;;;;;;;;;;;;;14.12;59.80;98146.09;5033741;28;19955;-61
2022/04/26 05:55:13;;;;;;;;;;;;;;;14.05;60.13;98137.66;5034085;28;19932;-63
2022/04/26 05:57:38;;;;;;;;;;;;;;;14.02;59.68;98143.56;5033278;28;20408;-61
2022/04/26 06:00:05;;;;;;;;;;;;;;;14.01;59.71;98137.47;5027774;28;19925;-63
2022/04/26 06:02:38;;;;;;;;;;;;;;;14.04;60.00;98138.75;5033298;28;20397;-65
2022/04/26 06:05:04;;;;;;;;;;;;;;;14.14;60.44;98141.25;5033703;28;19932;-63
2022/04/26 06:07:30;;;;;;;;;;;;;;;14.34;60.16;98150.00;5033102;28;19933;-63
2022/04/26 06:09:55;;;;;;;;;;;;;;;14.68;59.23;98147.06;5032151;28;19925;-63
2022/04/26 06:12:26;;;;;;;;;;;;;;;14.87;58.08;98141.63;5033202;28;19936;-63
2022/04/26 06:14:52;;;;;;;;;;;;;;;14.76;57.58;98143.69;5031416;28;19925;-64
2022/04/26 06:17:18;;;;;;;;;;;;;;;14.78;56.64;98146.88;5032987;28;19947;-64
2022/04/26 06:19:44;;;;;;;;;;;;;;;14.81;56.96;98146.28;5033388;28;19925;-63
2022/04/26 06:22:09;;;;;;;;;;;;;;;14.90;57.60;98149.03;5033275;28;19971;-64
2022/04/26 06:24:35;;;;;;;;;;;;;;;15.08;55.67;98142.03;5033329;28;20402;-64
2022/04/26 06:27:02;;;;;;;;;;;;;;;15.19;55.89;98146.88;5032747;28;19937;-63
2022/04/26 06:29:28;;;;;;;;;;;;;;;15.38;55.71;98145.97;5027828;28;19940;-63
2022/04/26 06:31:53;;;;;;;;;;;;;;;15.53;55.00;98139.50;5029844;28;19925;-61
2022/04/26 06:34:19;;;;;;;;;;;;;;;15.56;53.58;98147.72;5031737;28;20076;-62
2022/04/26 06:36:44;;;;;;;;;;;;;;;15.65;52.97;98143.25;5032651;28;20305;-62
2022/04/26 06:39:10;;;;;;;;;;;;;;;15.77;52.84;98148.09;5029703;28;19928;-61
2022/04/26 06:41:36;;;;;;;;;;;;;;;15.92;52.35;98156.88;5030910;28;19929;-64
2022/04/26 06:44:01;;;;;;;;;;;;;;;15.97;52.32;98157.53;5030121;28;19929;-61
2022/04/26 06:46:27;;;;;;;;;;;;;;;16.25;51.91;98160.88;5031449;28;19983;-63
2022/04/26 06:48:57;;;;;;;;;;;;;;;16.53;50.56;98160.72;5031055;28;19929;-61
2022/04/26 06:51:22;;;;;;;;;;;;;;;16.61;50.03;98169.91;5030300;28;19925;-62
2022/04/26 06:53:49;;;;;;;;;;;;;;;16.56;49.77;98165.50;5031820;28;19988;-63
2022/04/26 06:56:15;;;;;;;;;;;;;;;16.35;49.42;98162.50;5030329;28;19925;-62
2022/04/26 06:58:44;;;;;;;;;;;;;;;16.45;50.55;98169.50;4995948;28;19929;-62
2022/04/26 07:01:09;;;;;;;;;;;;;;;16.49;49.57;98170.47;5030618;28;19925;-62
2022/04/26 07:03:35;;;;;;;;;;;;;;;16.77;49.36;98168.47;5029801;28;19933;-65
2022/04/26 07:06:00;;;;;;;;;;;;;;;16.85;48.42;98169.59;5030619;28;20389;-61
2022/04/26 07:08:26;;;;;;;;;;;;;;;16.70;48.08;98162.72;5030926;28;20385;-62
2022/04/26 07:10:51;;;;;;;;;;;;;;;16.68;48.48;98165.72;5030113;28;19925;-63
2022/04/26 07:13:21;;;;;;;;;;;;;;;16.66;49.05;98175.94;5027882;28;20313;-63
2022/04/26 07:15:47;;;;;;;;;;;;;;;16.73;49.28;98167.44;5029660;28;19925;-62
2022/04/26 07:18:13;;;;;;;;;;;;;;;16.92;48.69;98177.97;5028338;28;19933;-64
2022/04/26 07:20:39;;;;;;;;;;;;;;;17.16;49.61;98181.06;5030478;28;20349;-63
2022/04/26 07:23:05;;;;;;;;;;;;;;;17.11;47.58;98186.53;5031154;28;20128;-63
2022/04/26 07:25:30;;;;;;;;;;;;;;;16.99;48.78;98184.44;5031636;28;20465;-62
2022/04/26 07:27:56;;;;;;;;;;;;;;;17.03;48.53;98182.75;5028079;28;20027;-61
2022/04/26 07:30:21;;;;;;;;;;;;;;;17.03;48.36;98180.06;5029231;28;19925;-63
2022/04/26 07:35:31;;;;;;;;;;;;;;;16.70;49.83;98184.13;5030620;28;19924;-62
2022/04/26 07:38:03;;;;;;;;;;;;;;;16.42;50.15;98191.53;5029726;28;19936;-60
2022/04/26 07:40:29;;;;;;;;;;;;;;;16.24;50.89;98179.91;5024980;28;19924;-63
2022/04/26 07:42:56;;;;;;;;;;;;;;;16.21;51.43;98177.84;5034665;28;19943;-62
2022/04/26 07:45:21;;;;;;;;;;;;;;;16.30;51.90;98179.47;5023374;28;19925;-62
2022/04/26 07:47:47;;;;;;;;;;;;;;;16.47;51.31;98180.69;5010155;28;19936;-63
2022/04/26 07:50:13;;;;;;;;;;;;;;;16.50;51.01;98183.56;5018614;28;19924;-63
2022/04/26 07:52:39;;;;;;;;;;;;;;;16.64;50.78;98182.69;5029599;28;20091;-63
2022/04/26 07:55:06;;;;;;;;;;;;;;;16.71;50.06;98185.72;5029883;28;19925;-66
2022/04/26 07:57:31;;;;;;;;;;;;;;;16.79;49.23;98179.63;5029613;28;20067;-63
2022/04/26 07:59:58;;;;;;;;;;;;;;;16.88;48.48;98180.47;5029651;28;20619;-64
2022/04/26 08:02:24;;;;;;;;;;;;;;;16.97;48.55;98180.50;5029082;28;19944;-63
2022/04/26 08:04:50;;;;;;;;;;;;;;;16.98;48.30;98180.22;5030862;28;19929;-64
2022/04/26 08:07:15;;;;;;;;;;;;;;;17.05;48.22;98178.97;5030063;28;19955;-62
2022/04/26 08:09:43;;;;;;;;;;;;;;;17.01;48.08;98174.22;5030309;28;20302;-67
2022/04/26 08:12:08;;;;;;;;;;;;;;;16.97;48.20;98180.50;5029908;28;19932;-63
2022/04/26 08:14:34;;;;;;;;;;;;;;;16.89;48.11;98186.63;5030874;28;19925;-61
2022/04/26 08:17:00;;;;;;;;;;;;;;;16.70;48.08;98184.91;5030297;28;19975;-62
2022/04/26 08:19:25;;;;;;;;;;;;;;;16.70;47.69;98174.19;5030267;28;19964;-65
2022/04/26 08:21:51;;;;;;;;;;;;;;;16.83;47.93;98174.47;5029689;28;19979;-63
2022/04/26 08:29:46;;;;;;;;;;;;;;;17.07;47.39;98182.13;5030516;28;20742;-62
2022/04/26 08:32:13;;;;;;;;;;;;;;;17.02;47.11;98178.47;5031758;28;19932;-61
2022/04/26 08:34:40;;;;;;;;;;;;;;;17.04;47.18;98178.19;5035702;28;20010;-63
2022/04/26 08:37:05;;;;;;;;;;;;;;;17.18;46.52;98178.88;5032666;28;19925;-60
2022/04/26 08:39:31;;;;;;;;;;;;;;;17.26;46.36;98171.94;5033618;28;19925;-61
2022/04/26 08:41:57;;;;;;;;;;;;;;;17.51;45.45;98166.97;5034264;28;19925;-62
2022/04/26 08:44:25;;;;;;;;;;;;;;;17.51;45.19;98166.97;5033928;28;19940;-62
2022/04/26 08:52:19;;;;;;;;;;;;;;;17.86;45.30;98173.22;5034044;28;20401;-63
2022/04/26 08:54:45;;;;;;;;;;;;;;;17.49;45.36;98168.06;5033771;28;19932;-63
2022/04/26 08:57:13;;;;;;;;;;;;;;;17.24;45.63;98169.59;5033748;28;19925;-62
2022/04/26 08:59:48;;;;;;;;;;;;;;;17.13;46.34;98170.97;5032188;28;20469;-63
2022/04/26 09:02:15;;;;;;;;;;;;;;;17.18;46.20;98173.50;5033495;28;19929;-64
2022/04/26 09:04:41;;;;;;;;;;;;;;;17.06;45.75;98167.16;5033776;28;19944;-63
2022/04/26 09:07:11;;;;;;;;;;;;;;;16.89;46.49;98162.53;5033227;28;19932;-64
2022/04/26 09:09:40;;;;;;;;;;;;;;;16.98;46.18;98172.19;5032742;28;19972;-62
2022/04/26 09:12:09;;;;;;;;;;;;;;;16.78;46.91;98165.47;5031355;28;19925;-64
2022/04/26 09:14:36;;;;;;;;;;;;;;;16.74;46.88;98169.06;5033104;28;19932;-63
2022/04/26 09:17:11;;;;;;;;;;;;;;;16.52;46.57;98175.22;5034559;28;19925;-63
2022/04/26 09:19:49;;;;;;;;;;;;;;;16.52;47.34;98164.50;5014766;28;19925;-64
2022/04/26 09:22:15;;;;;;;;;;;;;;;16.34;47.41;98163.63;5033205;28;19929;-63
2022/04/26 09:24:54;;;;;;;;;;;;;;;16.31;48.45;98156.19;5033977;28;19936;-63
2022/04/26 09:27:20;;;;;;;;;;;;;;;16.40;48.09;98156.25;5033596;28;19951;-62
2022/04/26 09:29:47;;;;;;;;;;;;;;;16.41;47.04;98169.31;5033002;28;19933;-63
2022/04/26 09:32:12;;;;;;;;;;;;;;;16.35;46.45;98162.50;5032950;28;19933;-64
2022/04/26 09:34:38;;;;;;;;;;;;;;;16.30;46.73;98168.00;5031369;28;19931;-65
2022/04/26 09:37:04;;;;;;;;;;;;;;;16.35;46.66;98157.97;5033363;28;19925;-67
2022/04/26 09:39:30;;;;;;;;;;;;;;;16.47;46.29;98162.78;5031140;28;19999;-66
2022/04/26 09:41:55;;;;;;;;;;;;;;;16.71;45.94;98165.09;5029443;28;19929;-65
2022/04/26 09:44:30;;;;;;;;;;;;;;;16.87;45.32;98160.16;5031166;28;19971;-66
2022/04/26 09:46:56;;;;;;;;;;;;;;;17.20;44.48;98157.13;5029331;28;19924;-62
2022/04/26 09:49:22;;;;;;;;;;;;;;;17.34;44.71;98159.69;5027146;28;20385;-62
2022/04/26 09:51:54;;;;;;;;;;;;;;;17.39;43.72;98154.97;5031762;28;20063;-64
2022/04/26 09:54:20;;;;;;;;;;;;;;;17.51;43.67;98161.63;5031186;28;20308;-64
2022/04/26 09:56:46;;;;;;;;;;;;;;;17.76;43.73;98160.06;5032281;28;19925;-61
2022/04/26 09:59:13;;;;;;;;;;;;;;;17.79;43.19;98159.47;5031370;28;19980;-64
2022/04/26 10:01:39;;;;;;;;;;;;;;;17.82;43.07;98156.16;5033339;28;19975;-61
2022/04/26 10:04:06;;;;;;;;;;;;;;;17.81;42.86;98159.94;5032033;28;19933;-64
2022/04/26 10:06:35;;;;;;;;;;;;;;;17.79;43.48;98160.25;5031044;28;19925;-64
2022/04/26 10:09:04;;;;;;;;;;;;;;;17.81;43.55;98171.47;5031425;28;20349;-63
2022/04/26 10:11:30;;;;;;;;;;;;;;;17.80;42.74;98172.56;5030578;28;20016;-63
2022/04/26 10:13:56;;;;;;;;;;;;;;;17.87;43.06;98170.19;5032313;28;20044;-62
2022/04/26 10:16:21;;;;;;;;;;;;;;;18.03;42.58;98165.16;5033282;28;19925;-64
2022/04/26 10:18:48;;;;;;;;;;;;;;;18.07;42.49;98173.38;5031019;28;19979;-62
2022/04/26 10:21:19;;;;;;;;;;;;;;;18.19;42.23;98183.47;5013715;28;19943;-63
2022/04/26 10:23:51;;;;;;;;;;;;;;;18.22;41.70;98167.50;5013913;28;19929;-63
2022/04/26 10:26:26;;;;;;;;;;;;;;;18.29;42.03;98169.72;5013046;28;19925;-63
2022/04/26 10:29:01;;;;;;;;;;;;;;;18.27;41.49;98172.72;5022970;28;19936;-63
2022/04/26 10:31:34;;;;;;;;;;;;;;;18.37;41.52;98183.09;5026562;28;20398;-62
2022/04/26 10:34:00;;;;;;;;;;;;;;;18.36;41.52;98178.88;5030081;28;20433;-63
2022/04/26 10:36:35;;;;;;;;;;;;;;;18.26;41.41;98181.06;5013102;28;19926;-63
2022/04/26 10:39:09;;;;;;;;;;;;;;;18.01;42.08;98183.47;5013452;28;19940;-62
2022/04/26 10:41:39;;;;;;;;;;;;;;;17.65;42.66;98183.72;5013653;28;19926;-63
2022/04/26 10:44:13;;;;;;;;;;;;;;;17.58;42.95;98186.06;5020072;28;19929;-62
2022/04/26 10:47:06;;;;;;;;;;;;;;;17.37;43.27;98183.19;5023979;28;19925;-62
2022/04/26 10:49:32;;;;;;;;;;;;;;;17.28;43.53;98183.16;5014387;28;19974;-63
2022/04/26 10:52:18;;;;;;;;;;;;;;;17.26;43.29;98179.97;5032207;28;19925;-62
2022/04/26 10:54:47;;;;;;;;;;;;;;;17.19;43.31;98185.00;5032251;28;19925;-62
2022/04/26 10:57:19;;;;;;;;;;;;;;;17.19;43.27;98188.47;5032809;28;19987;-64
2022/04/26 10:59:48;;;;;;;;;;;;;;;17.32;43.35;98176.06;5012433;28;20280;-63
2022/04/26 11:02:15;;;;;;;;;;;;;;;17.31;43.24;98187.09;5023509;28;20367;-63
2022/04/26 11:04:40;;;;;;;;;;;;;;;17.15;43.28;98189.41;5013184;28;19961;-62
2022/04/26 11:07:12;;;;;;;;;;;;;;;17.15;43.75;98192.09;5027808;28;20390;-64
2022/04/26 11:09:49;;;;;;;;;;;;;;;17.06;43.94;98189.38;5032299;28;19925;-64
2022/04/26 11:12:18;;;;;;;;;;;;;;;16.99;44.35;98199.72;5028804;28;19929;-63
2022/04/26 11:14:44;;;;;;;;;;;;;;;17.04;45.04;98196.94;5032160;28;19925;-65
2022/04/26 11:17:09;;;;;;;;;;;;;;;17.09;44.32;98198.66;5032210;28;19936;-64
2022/04/26 11:19:38;;;;;;;;;;;;;;;17.03;44.77;98198.81;5031854;28;19925;-64
2022/04/26 11:22:07;;;;;;;;;;;;;;;16.95;45.09;98199.56;5032197;28;19982;-63
2022/04/26 11:30:02;;;;;;;;;;;;;;;17.05;45.05;98200.38;5032066;28;19925;-62
2022/04/26 11:32:32;;;;;;;;;;;;;;;17.34;44.65;98200.66;5031422;28;19929;-62
2022/04/26 11:34:57;;;;;;;;;;;;;;;17.61;44.19;98199.63;5030467;28;20310;-63
2022/04/26 11:37:23;;;;;;;;;;;;;;;17.69;45.02;98190.03;5030232;28;20107;-62
2022/04/26 11:39:48;;;;;;;;;;;;;;;17.83;44.02;98198.75;5029746;28;19931;-64
2022/04/26 11:42:14;;;;;;;;;;;;;;;17.99;42.62;98198.28;5030351;28;19929;-65
2022/04/26 11:44:55;;;;;;;;;;;;;;;17.91;42.23;98205.19;5030977;28;20406;-65
2022/04/26 11:47:21;;;;;;;;;;;;;;;17.81;43.18;98184.84;5022858;28;19935;-65
2022/04/26 11:49:46;;;;;;;;;;;;;;;18.01;42.82;98188.81;5031482;28;19925;-66
2022/04/26 11:52:12;;;;;;;;;;;;;;;18.12;42.20;98194.66;5031671;28;19933;-65
2022/04/26 11:54:37;;;;;;;;;;;;;;;18.02;42.02;98189.59;5029960;28;19925;-64
2022/04/26 11:57:07;;;;;;;;;;;;;;;17.91;42.22;98189.94;5030252;28;20333;-68
2022/04/26 11:59:34;;;;;;;;;;;;;;;17.80;42.87;98190.56;5031827;28;19925;-68
2022/04/26 12:02:00;;;;;;;;;;;;;;;17.84;42.87;98184.22;5014334;28;19929;-66
2022/04/26 12:04:26;;;;;;;;;;;;;;;17.76;42.27;98174.25;5010616;28;19933;-67
2022/04/26 12:06:54;;;;;;;;;;;;;;;17.84;42.39;98180.78;5010558;28;19926;-67
2022/04/26 12:09:22;;;;;;;;;;;;;;;18.04;42.64;98180.16;5011325;28;19987;-66
2022/04/26 12:11:54;;;;;;;;;;;;;;;18.05;41.32;98178.25;5009593;28;19983;-67
2022/04/26 12:14:21;;;;;;;;;;;;;;;18.04;41.00;98184.72;5027877;28;19957;-66
2022/04/26 12:16:47;;;;;;;;;;;;;;;17.82;41.04;98177.59;5031432;28;19925;-66
2022/04/26 12:19:13;;;;;;;;;;;;;;;17.67;41.42;98168.88;5030902;28;19939;-66
2022/04/26 12:21:45;;;;;;;;;;;;;;;17.42;41.79;98172.31;5029846;28;19925;-64
2022/04/26 12:24:24;;;;;;;;;;;;;;;17.29;42.51;98179.34;5031315;28;20318;-68
2022/04/26 12:26:50;;;;;;;;;;;;;;;17.15;42.98;98165.31;5031001;28;20010;-67
2022/04/26 12:29:15;;;;;;;;;;;;;;;17.10;43.12;98162.78;5031224;28;20430;-67
2022/04/26 12:31:45;;;;;;;;;;;;;;;17.17;42.92;98168.47;5030578;28;19971;-64
2022/04/26 12:34:15;;;;;;;;;;;;;;;17.34;42.82;98168.50;5030801;28;19933;-65
2022/04/26 12:36:52;;;;;;;;;;;;;;;17.54;42.37;98166.34;5027449;28;19965;-66
2022/04/26 12:39:21;;;;;;;;;;;;;;;17.65;41.50;98175.69;5030897;28;19929;-66
2022/04/26 12:41:48;;;;;;;;;;;;;;;17.60;41.73;98170.47;5015842;28;20415;-65
2022/04/26 12:44:14;;;;;;;;;;;;;;;17.56;42.01;98169.50;5011532;28;19944;-65
2022/04/26 12:46:46;;;;;;;;;;;;;;;17.61;41.10;98166.66;5010878;28;19934;-67
2022/04/26 12:51:57;;;;;;;;;;;;;;;17.47;41.20;98175.66;5010232;28;19929;-66
2022/04/26 12:54:22;;;;;;;;;;;;;;;17.35;41.94;98164.72;5021833;28;19925;-68
2022/04/26 12:57:01;;;;;;;;;;;;;;;17.36;41.20;98165.53;5012835;28;19925;-67
2022/04/26 12:59:35;;;;;;;;;;;;;;;17.48;40.81;98166.50;5029634;28;19975;-67
2022/04/26 13:02:00;;;;;;;;;;;;;;;17.46;40.64;98168.69;5029013;28;20008;-66
2022/04/26 13:04:25;;;;;;;;;;;;;;;17.60;40.58;98165.88;5029094;28;19961;-67
2022/04/26 13:06:53;;;;;;;;;;;;;;;17.66;40.88;98161.97;5029824;28;19921;-67
2022/04/26 13:09:18;;;;;;;;;;;;;;;17.67;40.75;98166.19;5029703;28;20461;-67
2022/04/26 13:11:44;;;;;;;;;;;;;;;17.63;40.34;98164.47;5029254;28;20012;-67
2022/04/26 13:14:10;;;;;;;;;;;;;;;17.55;40.13;98168.72;5028825;28;19933;-66
2022/04/26 13:16:35;;;;;;;;;;;;;;;17.49;40.27;98165.38;5028443;28;19925;-68
2022/04/26 13:19:01;;;;;;;;;;;;;;;17.36;40.60;98160.19;5014203;28;20319;-65
2022/04/26 13:21:26;;;;;;;;;;;;;;;17.29;40.96;98159.81;5025938;28;19925;-67
2022/04/26 13:23:54;;;;;;;;;;;;;;;17.21;41.04;98156.81;5034475;28;19929;-65
2022/04/26 13:26:20;;;;;;;;;;;;;;;17.05;41.53;98152.19;5032897;28;19933;-66
2022/04/26 13:28:46;;;;;;;;;;;;;;;16.90;41.59;98156.88;5034295;28;19938;-65
2022/04/26 13:31:11;;;;;;;;;;;;;;;16.84;41.99;98154.63;5033408;28;19925;-65
2022/04/26 13:33:37;;;;;;;;;;;;;;;16.85;42.17;98156.22;5032148;28;19971;-66
2022/04/26 13:36:02;;;;;;;;;;;;;;;16.86;42.17;98158.59;5033394;28;20306;-67
2022/04/26 13:38:28;;;;;;;;;;;;;;;16.79;42.28;98161.72;5032771;28;20168;-67
2022/04/26 13:40:55;;;;;;;;;;;;;;;16.78;42.13;98157.44;5031407;28;19925;-67
2022/04/26 13:43:23;;;;;;;;;;;;;;;16.78;42.28;98156.66;5031877;28;19937;-66
2022/04/26 13:45:49;;;;;;;;;;;;;;;16.87;42.63;98165.50;5032308;28;19932;-67
2022/04/26 13:48:15;;;;;;;;;;;;;;;16.84;42.44;98163.44;5032536;28;19929;-66
2022/04/26 13:50:40;;;;;;;;;;;;;;;16.82;42.74;98165.63;5030740;28;20413;-66
2022/04/26 13:53:06;;;;;;;;;;;;;;;16.90;42.82;98166.78;5028592;28;19972;-65
2022/04/26 13:55:32;;;;;;;;;;;;;;;16.86;42.93;98165.84;5033245;28;20020;-66
2022/04/26 13:57:57;;;;;;;;;;;;;;;16.87;42.92;98164.72;5033794;28;19983;-67
2022/04/26 14:00:23;;;;;;;;;;;;;;;16.69;43.33;98159.25;5033094;28;19971;-65
2022/04/26 14:02:49;;;;;;;;;;;;;;;16.66;43.39;98167.13;5031983;28;19937;-68
2022/04/26 14:05:17;;;;;;;;;;;;;;;16.48;44.12;98163.56;5032559;28;20318;-66
2022/04/26 14:07:44;;;;;;;;;;;;;;;16.36;43.98;98164.09;5032434;28;20336;-67
2022/04/26 14:10:10;;;;;;;;;;;;;;;16.33;43.89;98160.16;5031785;28;19979;-67
2022/04/26 14:12:37;;;;;;;;;;;;;;;16.30;43.77;98162.66;5032958;28;19929;-67
2022/04/26 14:23:15;;;;;;;;;;;;;;;16.23;44.78;98159.59;5013738;28;19930;-62
2022/04/26 14:25:41;;;;;;;;;;;;;;;16.16;44.76;98165.38;5013782;28;19926;-64
2022/04/26 14:28:07;;;;;;;;;;;;;;;16.02;45.15;98164.63;5012588;28;19925;-64
2022/04/26 14:30:32;;;;;;;;;;;;;;;15.99;45.20;98167.91;5012785;28;19925;-64
2022/04/26 14:32:58;;;;;;;;;;;;;;;15.87;45.77;98168.44;5013941;28;19929;-65
2022/04/26 14:35:24;;;;;;;;;;;;;;;15.79;45.65;98164.59;4996150;28;19956;-62
2022/04/26 14:37:51;;;;;;;;;;;;;;;15.71;46.23;98170.69;5013489;28;20434;-64
2022/04/26 14:40:17;;;;;;;;;;;;;;;15.69;46.35;98167.50;5010665;28;20318;-64
2022/04/26 14:42:46;;;;;;;;;;;;;;;15.56;46.07;98177.13;5012232;28;19976;-64
2022/04/26 14:45:14;;;;;;;;;;;;;;;15.43;45.77;98168.00;5012236;28;19925;-64
2022/04/26 14:47:40;;;;;;;;;;;;;;;15.36;46.22;98174.84;5012603;28;19933;-65
2022/04/26 14:50:08;;;;;;;;;;;;;;;15.34;46.87;98177.03;5013104;28;20276;-65
2022/04/26 14:52:33;;;;;;;;;;;;;;;15.33;47.06;98183.47;5011009;28;19929;-64
2022/04/26 14:55:01;;;;;;;;;;;;;;;15.23;46.88;98184.44;5008755;28;21590;-64
2022/04/26 14:57:27;;;;;;;;;;;;;;;15.11;47.11;98192.16;5011487;28;19933;-64
2022/04/26 14:59:52;;;;;;;;;;;;;;;15.01;47.90;98187.00;5011203;28;19971;-64
2022/04/26 15:02:18;;;;;;;;;;;;;;;14.92;47.49;98185.03;5010247;28;19929;-64
2022/04/26 15:04:44;;;;;;;;;;;;;;;14.85;48.15;98175.81;5011827;28;19929;-65
2022/04/26 15:07:10;;;;;;;;;;;;;;;14.86;48.00;98180.09;5008880;28;20360;-62
2022/04/26 15:09:51;;;;;;;;;;;;;;;14.84;48.26;98187.59;5011467;28;19932;-65
2022/04/26 15:17:49;;;;;;;;;;;;;;;14.62;49.26;98196.22;5016160;28;19935;-65
2022/04/26 15:20:15;;;;;;;;;;;;;;;14.54;49.30;98200.34;5028750;28;19925;-68
2022/04/26 15:22:41;;;;;;;;;;;;;;;14.50;49.60;98202.78;4988274;28;19937;-71
2022/04/26 15:25:08;;;;;;;;;;;;;;;14.49;49.17;98203.06;5014431;28;19925;-69
2022/04/26 15:27:34;;;;;;;;;;;;;;;14.48;49.62;98202.28;5029273;28;20412;-69
2022/04/26 15:30:01;;;;;;;;;;;;;;;14.47;49.21;98202.56;5011688;28;19928;-68
2022/04/26 15:32:35;;;;;;;;;;;;;;;14.40;49.45;98202.16;5030865;28;19929;-63
2022/04/26 15:35:03;;;;;;;;;;;;;;;14.27;49.98;98217.81;4980404;28;19925;-64
2022/04/26 15:37:29;;;;;;;;;;;;;;;14.23;49.83;98216.00;5008636;28;19929;-64
2022/04/26 15:39:55;;;;;;;;;;;;;;;14.08;50.00;98214.34;5004790;28;19932;-65
2022/04/26 15:42:21;;;;;;;;;;;;;;;14.03;49.99;98219.75;4995502;28;19929;-66
2022/04/26 15:44:47;;;;;;;;;;;;;;;13.93;49.94;98214.56;5030818;28;20412;-66
2022/04/26 15:47:13;;;;;;;;;;;;;;;13.84;49.84;98225.88;5027702;28;19933;-65
2022/04/26 15:49:39;;;;;;;;;;;;;;;13.80;50.42;98230.19;5028349;28;19925;-66
2022/04/26 15:52:07;;;;;;;;;;;;;;;13.77;50.83;98222.78;5022666;28;19925;-63
2022/04/26 15:54:33;;;;;;;;;;;;;;;13.73;50.71;98224.41;5020460;28;19960;-66
2022/04/26 15:56:58;;;;;;;;;;;;;;;13.71;51.16;98229.25;5027297;28;19964;-66
2022/04/26 15:59:24;;;;;;;;;;;;;;;13.69;51.43;98230.59;5031295;28;19948;-64
2022/04/26 16:01:50;;;;;;;;;;;;;;;13.61;50.73;98232.81;5032198;28;20031;-65
2022/04/26 16:04:15;;;;;;;;;;;;;;;13.49;51.75;98235.09;5030161;28;20391;-66
2022/04/26 16:06:41;;;;;;;;;;;;;;;13.50;51.52;98235.88;5011532;28;19932;-64
2022/04/26 16:22:49;;;;;;;;;;;;;;;13.35;51.12;98253.63;5011414;28;19945;-64
2022/04/26 16:25:15;;;;;;;;;;;;;;;13.37;50.71;98248.81;5011758;28;19925;-63
2022/04/26 16:27:40;;;;;;;;;;;;;;;13.36;51.31;98259.75;5010653;28;20539;-61
2022/04/26 16:30:06;;;;;;;;;;;;;;;13.35;51.09;98258.13;5011905;28;19925;-63
2022/04/26 16:32:33;;;;;;;;;;;;;;;13.42;51.28;98247.19;5010261;28;20483;-65
2022/04/26 16:34:59;;;;;;;;;;;;;;;13.46;51.29;98250.84;5010641;28;19925;-67
2022/04/26 16:37:24;;;;;;;;;;;;;;;13.38;51.48;98249.59;5009893;28;20357;-67
2022/04/26 16:39:50;;;;;;;;;;;;;;;13.37;51.15;98248.00;5011831;28;19936;-65
2022/04/26 16:42:16;;;;;;;;;;;;;;;13.37;51.61;98256.78;5030094;28;19936;-64
2022/04/26 16:44:42;;;;;;;;;;;;;;;13.29;51.05;98254.72;5031579;28;19929;-65
2022/04/26 16:47:07;;;;;;;;;;;;;;;13.27;51.47;98254.25;5031254;28;19971;-63
2022/04/26 16:49:33;;;;;;;;;;;;;;;13.22;51.42;98251.59;5029510;28;19925;-64
2022/04/26 16:51:59;;;;;;;;;;;;;;;13.18;51.51;98261.22;5030365;28;20381;-65
2022/04/26 16:54:24;;;;;;;;;;;;;;;13.15;51.30;98257.25;5034741;28;20390;-65
2022/04/26 16:56:50;;;;;;;;;;;;;;;13.15;51.29;98262.59;5033665;28;19929;-63
2022/04/26 16:59:17;;;;;;;;;;;;;;;13.15;51.07;98264.47;5034677;28;20387;-62
2022/04/26 17:01:43;;;;;;;;;;;;;;;13.18;51.23;98269.22;5034864;28;19925;-63
2022/04/26 17:04:12;;;;;;;;;;;;;;;13.17;51.28;98264.94;5035219;28;19929;-61
2022/04/26 17:06:38;;;;;;;;;;;;;;;13.13;51.24;98278.03;5016870;28;19931;-62
2022/04/26 17:09:04;;;;;;;;;;;;;;;13.12;51.50;98278.31;5050380;28;19936;-62
2022/04/26 17:11:42;;;;;;;;;;;;;;;13.10;51.45;98278.59;5033672;28;19924;-62
2022/04/26 17:14:11;;;;;;;;;;;;;;;13.08;51.65;98282.59;5033310;28;19929;-60